sensor_id;sensor_type;location;lat;lon;timestamp;pressure;altitude;pressure_sealevel;temperature;humidity
49813;BME280;35706;52.100;5.056;2023-04-29T00:00:33;101433.06;;;10.71;98.39
49813;BME280;35706;52.100;5.056;2023-04-29T00:01:33;101437.47;;;10.70;98.28
49813;BME280;35706;52.100;5.056;2023-04-29T00:02:34;101437.84;;;10.66;98.45
49813;BME280;35706;52.100;5.056;2023-04-29T00:03:34;101439.53;;;10.55;98.82
49813;BME280;35706;52.100;5.056;2023-04-29T00:04:35;101439.06;;;10.50;98.99
49813;BME280;35706;52.100;5.056;2023-04-29T00:05:35;101431.56;;;10.46;99.69
49813;BME280;35706;52.100;5.056;2023-04-29T00:06:35;101440.03;;;10.61;99.19
49813;BME280;35706;52.100;5.056;2023-04-29T00:07:36;101442.41;;;10.64;98.72
49813;BME280;35706;52.100;5.056;2023-04-29T00:08:37;101447.06;;;10.60;98.37
49813;BME280;35706;52.100;5.056;2023-04-29T00:09:37;101448.47;;;10.64;98.57
49813;BME280;35706;52.100;5.056;2023-04-29T00:10:37;101448.13;;;10.69;98.08
49813;BME280;35706;52.100;5.056;2023-04-29T00:11:38;101451.97;;;10.65;97.91
49813;BME280;35706;52.100;5.056;2023-04-29T00:12:39;101446.22;;;10.59;98.00
49813;BME280;35706;52.100;5.056;2023-04-29T00:13:40;101451.72;;;10.68;98.13
49813;BME280;35706;52.100;5.056;2023-04-29T00:14:40;101456.38;;;10.64;97.26
49813;BME280;35706;52.100;5.056;2023-04-29T00:15:42;101447.28;;;10.68;97.45
49813;BME280;35706;52.100;5.056;2023-04-29T00:16:43;101459.47;;;10.58;97.45
49813;BME280;35706;52.100;5.056;2023-04-29T00:17:43;101459.63;;;10.56;97.97
49813;BME280;35706;52.100;5.056;2023-04-29T00:18:44;101452.44;;;10.58;98.03
49813;BME280;35706;52.100;5.056;2023-04-29T00:19:44;101447.66;;;10.64;98.21
49813;BME280;35706;52.100;5.056;2023-04-29T00:20:45;101454.94;;;10.60;97.64
49813;BME280;35706;52.100;5.056;2023-04-29T00:21:45;101457.72;;;10.58;97.93
49813;BME280;35706;52.100;5.056;2023-04-29T00:22:45;101458.19;;;10.52;98.15
49813;BME280;35706;52.100;5.056;2023-04-29T00:23:46;101456.03;;;10.46;98.41
49813;BME280;35706;52.100;5.056;2023-04-29T00:24:46;101454.13;;;10.37;98.83
49813;BME280;35706;52.100;5.056;2023-04-29T00:25:46;101456.16;;;10.45;98.74
49813;BME280;35706;52.100;5.056;2023-04-29T00:26:47;101461.41;;;10.45;98.71
49813;BME280;35706;52.100;5.056;2023-04-29T00:27:47;101462.59;;;10.52;98.81
49813;BME280;35706;52.100;5.056;2023-04-29T00:28:48;101466.44;;;10.59;98.02
49813;BME280;35706;52.100;5.056;2023-04-29T00:29:48;101460.81;;;10.64;97.77
49813;BME280;35706;52.100;5.056;2023-04-29T00:30:48;101465.00;;;10.55;97.24
49813;BME280;35706;52.100;5.056;2023-04-29T00:31:49;101463.56;;;10.51;97.44
49813;BME280;35706;52.100;5.056;2023-04-29T00:32:49;101468.56;;;10.43;97.75
49813;BME280;35706;52.100;5.056;2023-04-29T00:33:49;101460.31;;;10.47;97.83
49813;BME280;35706;52.100;5.056;2023-04-29T00:34:49;101457.25;;;10.42;97.84
49813;BME280;35706;52.100;5.056;2023-04-29T00:35:50;101471.31;;;10.41;98.10
49813;BME280;35706;52.100;5.056;2023-04-29T00:36:51;101464.88;;;10.45;98.20
49813;BME280;35706;52.100;5.056;2023-04-29T00:37:51;101473.59;;;10.34;98.06
49813;BME280;35706;52.100;5.056;2023-04-29T00:38:51;101471.56;;;10.38;98.63
49813;BME280;35706;52.100;5.056;2023-04-29T00:39:51;101479.94;;;10.32;98.17
49813;BME280;35706;52.100;5.056;2023-04-29T00:40:52;101482.44;;;10.33;98.57
49813;BME280;35706;52.100;5.056;2023-04-29T00:41:52;101472.28;;;10.40;98.41
49813;BME280;35706;52.100;5.056;2023-04-29T00:42:53;101480.16;;;10.29;98.85
49813;BME280;35706;52.100;5.056;2023-04-29T00:43:53;101481.84;;;10.30;99.22
49813;BME280;35706;52.100;5.056;2023-04-29T00:44:54;101477.19;;;10.33;99.43
49813;BME280;35706;52.100;5.056;2023-04-29T00:45:54;101479.00;;;10.33;98.96
49813;BME280;35706;52.100;5.056;2023-04-29T00:46:55;101475.75;;;10.41;98.90
49813;BME280;35706;52.100;5.056;2023-04-29T00:47:55;101481.72;;;10.31;98.81
49813;BME280;35706;52.100;5.056;2023-04-29T00:48:56;101476.66;;;10.17;99.22
49813;BME280;35706;52.100;5.056;2023-04-29T00:49:56;101479.00;;;10.33;99.29
49813;BME280;35706;52.100;5.056;2023-04-29T00:50:57;101473.22;;;10.39;98.73
49813;BME280;35706;52.100;5.056;2023-04-29T00:51:58;101477.19;;;10.45;98.79
49813;BME280;35706;52.100;5.056;2023-04-29T00:52:58;101488.16;;;10.38;98.67
49813;BME280;35706;52.100;5.056;2023-04-29T00:53:59;101480.78;;;10.44;98.79
49813;BME280;35706;52.100;5.056;2023-04-29T00:55:00;101479.78;;;10.56;98.30
49813;BME280;35706;52.100;5.056;2023-04-29T00:56:01;101480.66;;;10.56;98.00
49813;BME280;35706;52.100;5.056;2023-04-29T00:57:05;101481.13;;;10.50;97.97
49813;BME280;35706;52.100;5.056;2023-04-29T00:58:07;101476.69;;;10.51;98.01
49813;BME280;35706;52.100;5.056;2023-04-29T00:59:09;101484.34;;;10.54;98.06
49813;BME280;35706;52.100;5.056;2023-04-29T01:00:11;101482.31;;;10.35;98.38
49813;BME280;35706;52.100;5.056;2023-04-29T01:01:13;101482.91;;;10.38;98.57
49813;BME280;35706;52.100;5.056;2023-04-29T01:02:14;101475.88;;;10.50;98.40
49813;BME280;35706;52.100;5.056;2023-04-29T01:03:14;101479.78;;;10.56;98.22
49813;BME280;35706;52.100;5.056;2023-04-29T01:04:15;101489.00;;;10.62;97.93
49813;BME280;35706;52.100;5.056;2023-04-29T01:05:16;101486.25;;;10.63;97.55
49813;BME280;35706;52.100;5.056;2023-04-29T01:06:28;101486.72;;;10.68;97.58
49813;BME280;35706;52.100;5.056;2023-04-29T01:10:56;101486.50;;;10.49;97.23
49813;BME280;35706;52.100;5.056;2023-04-29T01:12:12;101492.59;;;10.49;97.25
49813;BME280;35706;52.100;5.056;2023-04-29T01:14:31;101493.31;;;10.63;97.19
49813;BME280;35706;52.100;5.056;2023-04-29T01:15:46;101495.72;;;10.54;96.83
49813;BME280;35706;52.100;5.056;2023-04-29T01:16:51;101500.34;;;10.51;97.06
49813;BME280;35706;52.100;5.056;2023-04-29T01:18:14;101503.94;;;10.61;96.73
49813;BME280;35706;52.100;5.056;2023-04-29T01:20:26;101498.81;;;10.48;96.87
49813;BME280;35706;52.100;5.056;2023-04-29T01:21:26;101493.31;;;10.63;96.41
49813;BME280;35706;52.100;5.056;2023-04-29T01:22:27;101496.16;;;10.71;95.93
49813;BME280;35706;52.100;5.056;2023-04-29T01:23:28;101493.53;;;10.71;95.60
49813;BME280;35706;52.100;5.056;2023-04-29T01:24:29;101492.25;;;10.65;95.63
49813;BME280;35706;52.100;5.056;2023-04-29T01:25:29;101500.84;;;10.67;95.32
49813;BME280;35706;52.100;5.056;2023-04-29T01:26:31;101489.38;;;10.79;95.12
49813;BME280;35706;52.100;5.056;2023-04-29T01:27:37;101499.25;;;10.87;94.19
49813;BME280;35706;52.100;5.056;2023-04-29T01:28:53;101492.44;;;10.85;93.35
49813;BME280;35706;52.100;5.056;2023-04-29T01:30:11;101505.34;;;10.88;92.69
49813;BME280;35706;52.100;5.056;2023-04-29T01:31:35;101501.66;;;10.79;93.13
49813;BME280;35706;52.100;5.056;2023-04-29T01:32:59;101507.25;;;10.86;93.19
49813;BME280;35706;52.100;5.056;2023-04-29T01:38:04;101494.38;;;10.60;93.12
49813;BME280;35706;52.100;5.056;2023-04-29T01:39:27;101502.41;;;10.58;93.06
49813;BME280;35706;52.100;5.056;2023-04-29T01:40:47;101508.94;;;10.64;93.25
49813;BME280;35706;52.100;5.056;2023-04-29T01:42:12;101509.66;;;10.66;93.33
49813;BME280;35706;52.100;5.056;2023-04-29T01:43:14;101513.63;;;10.72;93.12
49813;BME280;35706;52.100;5.056;2023-04-29T01:44:21;101509.31;;;10.71;92.90
49813;BME280;35706;52.100;5.056;2023-04-29T01:45:23;101506.78;;;10.80;92.48
49813;BME280;35706;52.100;5.056;2023-04-29T01:46:24;101512.31;;;10.77;92.50
49813;BME280;35706;52.100;5.056;2023-04-29T01:47:24;101518.28;;;10.79;92.37
49813;BME280;35706;52.100;5.056;2023-04-29T01:48:27;101513.13;;;10.78;92.26
49813;BME280;35706;52.100;5.056;2023-04-29T01:49:27;101512.91;;;10.70;92.24
49813;BME280;35706;52.100;5.056;2023-04-29T01:50:28;101511.47;;;10.66;92.71
49813;BME280;35706;52.100;5.056;2023-04-29T01:51:28;101516.84;;;10.75;92.59
49813;BME280;35706;52.100;5.056;2023-04-29T01:52:28;101513.38;;;10.75;92.07
49813;BME280;35706;52.100;5.056;2023-04-29T01:53:29;101516.00;;;10.75;92.10
49813;BME280;35706;52.100;5.056;2023-04-29T01:54:30;101514.72;;;10.69;92.12
49813;BME280;35706;52.100;5.056;2023-04-29T01:55:31;101518.78;;;10.73;92.31
49813;BME280;35706;52.100;5.056;2023-04-29T01:56:31;101516.72;;;10.77;92.21
49813;BME280;35706;52.100;5.056;2023-04-29T01:57:31;101514.69;;;10.80;91.80
49813;BME280;35706;52.100;5.056;2023-04-29T01:58:32;101517.56;;;10.77;91.85
49813;BME280;35706;52.100;5.056;2023-04-29T01:59:32;101517.19;;;10.82;91.65
49813;BME280;35706;52.100;5.056;2023-04-29T02:00:32;101515.16;;;10.74;91.71
49813;BME280;35706;52.100;5.056;2023-04-29T02:01:33;101513.94;;;10.90;90.93
49813;BME280;35706;52.100;5.056;2023-04-29T02:02:33;101521.13;;;10.88;90.60
49813;BME280;35706;52.100;5.056;2023-04-29T02:03:34;101518.28;;;10.79;91.45
49813;BME280;35706;52.100;5.056;2023-04-29T02:04:35;101519.84;;;10.82;91.17
49813;BME280;35706;52.100;5.056;2023-04-29T02:05:35;101522.94;;;10.76;91.16
49813;BME280;35706;52.100;5.056;2023-04-29T02:06:35;101529.50;;;10.70;91.62
49813;BME280;35706;52.100;5.056;2023-04-29T02:07:36;101520.66;;;10.83;91.45
49813;BME280;35706;52.100;5.056;2023-04-29T02:08:36;101517.69;;;10.76;91.19
49813;BME280;35706;52.100;5.056;2023-04-29T02:09:36;101512.66;;;10.73;91.72
49813;BME280;35706;52.100;5.056;2023-04-29T02:10:37;101519.34;;;10.77;91.32
49813;BME280;35706;52.100;5.056;2023-04-29T02:11:37;101524.50;;;10.78;91.62
49813;BME280;35706;52.100;5.056;2023-04-29T02:12:38;101516.59;;;10.78;91.29
49813;BME280;35706;52.100;5.056;2023-04-29T02:13:38;101523.28;;;10.83;91.35
49813;BME280;35706;52.100;5.056;2023-04-29T02:14:38;101520.78;;;10.81;91.34
49813;BME280;35706;52.100;5.056;2023-04-29T02:15:39;101530.34;;;10.82;91.52
49813;BME280;35706;52.100;5.056;2023-04-29T02:16:39;101528.06;;;10.89;91.32
49813;BME280;35706;52.100;5.056;2023-04-29T02:17:39;101528.53;;;10.94;90.51
49813;BME280;35706;52.100;5.056;2023-04-29T02:18:40;101529.53;;;10.82;90.83
49813;BME280;35706;52.100;5.056;2023-04-29T02:19:40;101528.19;;;10.76;90.96
49813;BME280;35706;52.100;5.056;2023-04-29T02:20:41;101535.75;;;10.69;90.66
49813;BME280;35706;52.100;5.056;2023-04-29T02:21:41;101530.72;;;10.77;91.05
49813;BME280;35706;52.100;5.056;2023-04-29T02:22:42;101545.41;;;10.69;90.75
49813;BME280;35706;52.100;5.056;2023-04-29T02:23:42;101544.69;;;10.67;91.69
49813;BME280;35706;52.100;5.056;2023-04-29T02:24:42;101543.84;;;10.66;91.51
49813;BME280;35706;52.100;5.056;2023-04-29T02:25:43;101547.81;;;10.61;91.79
49813;BME280;35706;52.100;5.056;2023-04-29T02:26:43;101545.28;;;10.59;92.06
49813;BME280;35706;52.100;5.056;2023-04-29T02:27:43;101549.22;;;10.53;92.27
49813;BME280;35706;52.100;5.056;2023-04-29T02:28:44;101547.69;;;10.51;92.55
49813;BME280;35706;52.100;5.056;2023-04-29T02:29:44;101546.00;;;10.50;92.44
49813;BME280;35706;52.100;5.056;2023-04-29T02:30:45;101551.28;;;10.50;92.85
49813;BME280;35706;52.100;5.056;2023-04-29T02:31:45;101550.91;;;10.54;93.03
49813;BME280;35706;52.100;5.056;2023-04-29T02:32:46;101556.53;;;10.61;92.95
49813;BME280;35706;52.100;5.056;2023-04-29T02:33:46;101563.44;;;10.62;92.87
49813;BME280;35706;52.100;5.056;2023-04-29T02:34:46;101556.88;;;10.68;92.73
49813;BME280;35706;52.100;5.056;2023-04-29T02:35:47;101558.78;;;10.66;92.69
49813;BME280;35706;52.100;5.056;2023-04-29T02:36:48;101556.28;;;10.64;92.35
49813;BME280;35706;52.100;5.056;2023-04-29T02:37:48;101555.34;;;10.65;92.70
49813;BME280;35706;52.100;5.056;2023-04-29T02:38:49;101564.41;;;10.61;92.98
49813;BME280;35706;52.100;5.056;2023-04-29T02:39:50;101570.34;;;10.52;93.32
49813;BME280;35706;52.100;5.056;2023-04-29T02:40:50;101567.16;;;10.48;93.75
49813;BME280;35706;52.100;5.056;2023-04-29T02:41:53;101566.06;;;10.51;93.92
49813;BME280;35706;52.100;5.056;2023-04-29T02:42:54;101561.06;;;10.48;94.20
49813;BME280;35706;52.100;5.056;2023-04-29T02:43:54;101565.72;;;10.44;94.25
49813;BME280;35706;52.100;5.056;2023-04-29T02:44:54;101567.13;;;10.37;94.76
49813;BME280;35706;52.100;5.056;2023-04-29T02:45:55;101573.50;;;10.46;94.79
49813;BME280;35706;52.100;5.056;2023-04-29T02:46:56;101575.16;;;10.47;94.51
49813;BME280;35706;52.100;5.056;2023-04-29T02:47:57;101572.03;;;10.42;94.90
49813;BME280;35706;52.100;5.056;2023-04-29T02:48:57;101565.47;;;10.47;94.95
49813;BME280;35706;52.100;5.056;2023-04-29T02:49:58;101569.06;;;10.46;94.98
49813;BME280;35706;52.100;5.056;2023-04-29T02:50:58;101578.13;;;10.53;94.54
49813;BME280;35706;52.100;5.056;2023-04-29T02:51:58;101575.03;;;10.48;94.47
49813;BME280;35706;52.100;5.056;2023-04-29T02:52:59;101572.88;;;10.53;94.56
49813;BME280;35706;52.100;5.056;2023-04-29T02:53:59;101571.09;;;10.65;94.03
49813;BME280;35706;52.100;5.056;2023-04-29T02:54:59;101579.09;;;10.52;94.32
49813;BME280;35706;52.100;5.056;2023-04-29T02:56:00;101579.56;;;10.57;94.36
49813;BME280;35706;52.100;5.056;2023-04-29T02:57:00;101582.31;;;10.45;94.63
49813;BME280;35706;52.100;5.056;2023-04-29T02:58:00;101578.50;;;10.49;94.83
49813;BME280;35706;52.100;5.056;2023-04-29T02:59:01;101582.19;;;10.57;94.59
49813;BME280;35706;52.100;5.056;2023-04-29T03:00:01;101589.97;;;10.59;94.25
49813;BME280;35706;52.100;5.056;2023-04-29T03:01:01;101579.69;;;10.56;94.23
49813;BME280;35706;52.100;5.056;2023-04-29T03:02:03;101587.47;;;10.57;94.21
49813;BME280;35706;52.100;5.056;2023-04-29T03:03:04;101590.59;;;10.63;94.13
49813;BME280;35706;52.100;5.056;2023-04-29T03:04:04;101586.53;;;10.70;93.92
49813;BME280;35706;52.100;5.056;2023-04-29T03:05:05;101588.56;;;10.77;93.18
49813;BME280;35706;52.100;5.056;2023-04-29T03:06:06;101587.97;;;10.74;92.83
49813;BME280;35706;52.100;5.056;2023-04-29T03:07:06;101589.50;;;10.65;93.60
49813;BME280;35706;52.100;5.056;2023-04-29T03:08:07;101598.69;;;10.71;93.44
49813;BME280;35706;52.100;5.056;2023-04-29T03:09:09;101602.31;;;10.70;92.96
49813;BME280;35706;52.100;5.056;2023-04-29T03:10:09;101595.34;;;10.69;93.05
49813;BME280;35706;52.100;5.056;2023-04-29T03:11:10;101599.31;;;10.63;93.49
49813;BME280;35706;52.100;5.056;2023-04-29T03:12:10;101595.25;;;10.59;93.46
49813;BME280;35706;52.100;5.056;2023-04-29T03:13:11;101598.34;;;10.64;93.42
49813;BME280;35706;52.100;5.056;2023-04-29T03:14:11;101589.63;;;10.64;93.22
49813;BME280;35706;52.100;5.056;2023-04-29T03:15:11;101598.22;;;10.66;92.99
49813;BME280;35706;52.100;5.056;2023-04-29T03:16:12;101597.97;;;10.57;93.03
49813;BME280;35706;52.100;5.056;2023-04-29T03:17:14;101602.41;;;10.57;93.28
49813;BME280;35706;52.100;5.056;2023-04-29T03:18:14;101598.22;;;10.66;92.78
49813;BME280;35706;52.100;5.056;2023-04-29T03:19:15;101597.88;;;10.48;93.13
49813;BME280;35706;52.100;5.056;2023-04-29T03:20:15;101601.06;;;10.51;93.48
49813;BME280;35706;52.100;5.056;2023-04-29T03:21:16;101593.66;;;10.45;93.56
49813;BME280;35706;52.100;5.056;2023-04-29T03:22:16;101597.63;;;10.51;93.33
49813;BME280;35706;52.100;5.056;2023-04-29T03:23:17;101598.81;;;10.58;92.78
49813;BME280;35706;52.100;5.056;2023-04-29T03:24:17;101602.41;;;10.57;92.66
49813;BME280;35706;52.100;5.056;2023-04-29T03:25:17;101601.91;;;10.52;93.05
49813;BME280;35706;52.100;5.056;2023-04-29T03:26:18;101597.50;;;10.52;93.23
49813;BME280;35706;52.100;5.056;2023-04-29T03:27:18;101597.38;;;10.54;93.08
49813;BME280;35706;52.100;5.056;2023-04-29T03:28:18;101600.97;;;10.53;92.56
49813;BME280;35706;52.100;5.056;2023-04-29T03:29:19;101602.88;;;10.51;93.00
49813;BME280;35706;52.100;5.056;2023-04-29T03:30:19;101603.13;;;10.48;92.93
49813;BME280;35706;52.100;5.056;2023-04-29T03:31:20;101605.59;;;10.49;93.17
49813;BME280;35706;52.100;5.056;2023-04-29T03:32:22;101603.47;;;10.54;93.16
49813;BME280;35706;52.100;5.056;2023-04-29T03:33:23;101604.31;;;10.55;93.03
49813;BME280;35706;52.100;5.056;2023-04-29T03:34:23;101605.66;;;10.61;93.19
49813;BME280;35706;52.100;5.056;2023-04-29T03:35:23;101598.94;;;10.56;93.09
49813;BME280;35706;52.100;5.056;2023-04-29T03:36:24;101600.03;;;10.65;92.49
49813;BME280;35706;52.100;5.056;2023-04-29T03:37:25;101596.78;;;10.73;92.04
49813;BME280;35706;52.100;5.056;2023-04-29T03:38:25;101603.97;;;10.71;91.94
49813;BME280;35706;52.100;5.056;2023-04-29T03:39:25;101600.50;;;10.70;91.71
49813;BME280;35706;52.100;5.056;2023-04-29T03:40:31;101605.28;;;10.65;91.72
49813;BME280;35706;52.100;5.056;2023-04-29T03:41:31;101604.94;;;10.58;92.02
49813;BME280;35706;52.100;5.056;2023-04-29T03:42:31;101605.97;;;10.56;92.57
49813;BME280;35706;52.100;5.056;2023-04-29T03:43:32;101605.75;;;10.59;92.57
49813;BME280;35706;52.100;5.056;2023-04-29T03:44:32;101607.31;;;10.62;92.29
49813;BME280;35706;52.100;5.056;2023-04-29T03:45:32;101608.38;;;10.70;92.03
49813;BME280;35706;52.100;5.056;2023-04-29T03:46:33;101609.72;;;10.65;91.96
49813;BME280;35706;52.100;5.056;2023-04-29T03:47:33;101601.22;;;10.61;91.93
49813;BME280;35706;52.100;5.056;2023-04-29T03:48:33;101604.56;;;10.63;92.11
49813;BME280;35706;52.100;5.056;2023-04-29T03:49:34;101610.75;;;10.62;91.96
49813;BME280;35706;52.100;5.056;2023-04-29T03:50:35;101608.50;;;10.69;91.87
49813;BME280;35706;52.100;5.056;2023-04-29T03:51:36;101612.81;;;10.70;91.70
49813;BME280;35706;52.100;5.056;2023-04-29T03:52:37;101610.53;;;10.65;91.72
49813;BME280;35706;52.100;5.056;2023-04-29T03:53:37;101609.00;;;10.74;91.61
49813;BME280;35706;52.100;5.056;2023-04-29T03:54:38;101612.47;;;10.63;91.28
49813;BME280;35706;52.100;5.056;2023-04-29T03:55:39;101612.00;;;10.69;91.39
49813;BME280;35706;52.100;5.056;2023-04-29T03:56:39;101610.53;;;10.65;91.80
49813;BME280;35706;52.100;5.056;2023-04-29T03:57:40;101614.38;;;10.72;91.61
49813;BME280;35706;52.100;5.056;2023-04-29T03:58:40;101612.00;;;10.69;91.36
49813;BME280;35706;52.100;5.056;2023-04-29T03:59:41;101621.91;;;10.66;91.35
49813;BME280;35706;52.100;5.056;2023-04-29T04:00:41;101617.34;;;10.68;91.56
49813;BME280;35706;52.100;5.056;2023-04-29T04:01:42;101619.97;;;10.68;91.27
49813;BME280;35706;52.100;5.056;2023-04-29T04:02:42;101621.66;;;10.69;91.41
49813;BME280;35706;52.100;5.056;2023-04-29T04:03:43;101618.78;;;10.72;91.15
49813;BME280;35706;52.100;5.056;2023-04-29T04:04:43;101626.31;;;10.65;91.34
49813;BME280;35706;52.100;5.056;2023-04-29T04:05:44;101615.09;;;10.63;91.45
49813;BME280;35706;52.100;5.056;2023-04-29T04:06:44;101619.50;;;10.63;91.53
49813;BME280;35706;52.100;5.056;2023-04-29T04:07:51;101614.97;;;10.65;91.69
49813;BME280;35706;52.100;5.056;2023-04-29T04:08:51;101622.72;;;10.66;91.48
49813;BME280;35706;52.100;5.056;2023-04-29T04:09:52;101623.91;;;10.62;91.48
49813;BME280;35706;52.100;5.056;2023-04-29T04:10:52;101625.34;;;10.66;91.68
49813;BME280;35706;52.100;5.056;2023-04-29T04:11:52;101622.97;;;10.63;91.63
49813;BME280;35706;52.100;5.056;2023-04-29T04:12:53;101625.50;;;10.65;91.51
49813;BME280;35706;52.100;5.056;2023-04-29T04:13:53;101629.88;;;10.64;91.35
49813;BME280;35706;52.100;5.056;2023-04-29T04:14:53;101628.47;;;10.71;91.20
49813;BME280;35706;52.100;5.056;2023-04-29T04:15:54;101631.59;;;10.76;90.91
49813;BME280;35706;52.100;5.056;2023-04-29T04:16:54;101628.13;;;10.76;90.96
49813;BME280;35706;52.100;5.056;2023-04-29T04:17:55;101636.84;;;10.65;91.24
49813;BME280;35706;52.100;5.056;2023-04-29T04:18:55;101632.66;;;10.63;91.24
49813;BME280;35706;52.100;5.056;2023-04-29T04:19:55;101634.22;;;10.65;91.53
49813;BME280;35706;52.100;5.056;2023-04-29T04:20:56;101634.31;;;10.64;91.24
49813;BME280;35706;52.100;5.056;2023-04-29T04:21:56;101636.94;;;10.64;91.70
49813;BME280;35706;52.100;5.056;2023-04-29T04:22:56;101641.13;;;10.66;91.29
49813;BME280;35706;52.100;5.056;2023-04-29T04:23:56;101637.56;;;10.67;91.41
49813;BME280;35706;52.100;5.056;2023-04-29T04:24:57;101638.63;;;10.65;91.50
49813;BME280;35706;52.100;5.056;2023-04-29T04:25:57;101644.38;;;10.70;91.49
49813;BME280;35706;52.100;5.056;2023-04-29T04:26:57;101643.53;;;10.80;91.16
49813;BME280;35706;52.100;5.056;2023-04-29T04:27:58;101642.56;;;10.70;91.22
49813;BME280;35706;52.100;5.056;2023-04-29T04:28:58;101648.19;;;10.77;91.34
49813;BME280;35706;52.100;5.056;2023-04-29T04:29:58;101645.69;;;10.75;91.51
49813;BME280;35706;52.100;5.056;2023-04-29T04:30:59;101652.16;;;10.71;91.73
49813;BME280;35706;52.100;5.056;2023-04-29T04:31:59;101638.38;;;10.68;91.82
49813;BME280;35706;52.100;5.056;2023-04-29T04:32:59;101648.91;;;10.56;92.59
49813;BME280;35706;52.100;5.056;2023-04-29T04:34:00;101646.63;;;10.74;92.12
49813;BME280;35706;52.100;5.056;2023-04-29T04:35:01;101648.19;;;10.77;91.65
49813;BME280;35706;52.100;5.056;2023-04-29T04:36:01;101646.53;;;10.76;91.80
49813;BME280;35706;52.100;5.056;2023-04-29T04:37:01;101660.16;;;10.81;91.71
49813;BME280;35706;52.100;5.056;2023-04-29T04:38:02;101650.81;;;10.77;91.72
49813;BME280;35706;52.100;5.056;2023-04-29T04:39:02;101655.34;;;10.75;92.12
49813;BME280;35706;52.100;5.056;2023-04-29T04:40:03;101655.09;;;10.67;92.89
49813;BME280;35706;52.100;5.056;2023-04-29T04:41:05;101665.41;;;10.70;92.47
49813;BME280;35706;52.100;5.056;2023-04-29T04:42:07;101664.94;;;10.65;92.84
49813;BME280;35706;52.100;5.056;2023-04-29T04:43:07;101664.22;;;10.74;92.52
49813;BME280;35706;52.100;5.056;2023-04-29T04:44:07;101671.38;;;10.72;92.59
49813;BME280;35706;52.100;5.056;2023-04-29T04:45:08;101676.19;;;10.78;92.23
49813;BME280;35706;52.100;5.056;2023-04-29T04:46:11;101666.13;;;10.83;91.99
49813;BME280;35706;52.100;5.056;2023-04-29T04:47:12;101670.81;;;10.79;92.06
49813;BME280;35706;52.100;5.056;2023-04-29T04:48:12;101682.13;;;10.69;92.56
49813;BME280;35706;52.100;5.056;2023-04-29T04:49:13;101677.81;;;10.68;92.84
49813;BME280;35706;52.100;5.056;2023-04-29T04:50:13;101680.56;;;10.66;92.96
49813;BME280;35706;52.100;5.056;2023-04-29T04:51:14;101681.78;;;10.73;92.61
49813;BME280;35706;52.100;5.056;2023-04-29T04:52:14;101684.28;;;10.64;93.23
49813;BME280;35706;52.100;5.056;2023-04-29T04:53:15;101690.50;;;10.63;93.20
49813;BME280;35706;52.100;5.056;2023-04-29T04:54:16;101690.50;;;10.63;93.27
49813;BME280;35706;52.100;5.056;2023-04-29T04:55:16;101698.50;;;10.61;93.63
49813;BME280;35706;52.100;5.056;2023-04-29T04:56:17;101693.59;;;10.56;93.60
49813;BME280;35706;52.100;5.056;2023-04-29T04:57:17;101696.59;;;10.63;93.32
49813;BME280;35706;52.100;5.056;2023-04-29T04:58:17;101699.31;;;10.62;93.46
49813;BME280;35706;52.100;5.056;2023-04-29T04:59:17;101695.50;;;10.66;93.44
49813;BME280;35706;52.100;5.056;2023-04-29T05:00:18;101700.88;;;10.64;93.51
49813;BME280;35706;52.100;5.056;2023-04-29T05:01:18;101695.75;;;10.63;93.40
49813;BME280;35706;52.100;5.056;2023-04-29T05:02:19;101692.63;;;10.57;94.13
49813;BME280;35706;52.100;5.056;2023-04-29T05:03:19;101699.69;;;10.57;94.44
49813;BME280;35706;52.100;5.056;2023-04-29T05:04:19;101690.81;;;10.58;94.49
49813;BME280;35706;52.100;5.056;2023-04-29T05:05:20;101700.28;;;10.61;94.20
49813;BME280;35706;52.100;5.056;2023-04-29T05:06:20;101698.50;;;10.61;94.25
49813;BME280;35706;52.100;5.056;2023-04-29T05:07:20;101698.69;;;10.58;94.34
49813;BME280;35706;52.100;5.056;2023-04-29T05:08:21;101701.22;;;10.59;94.25
49813;BME280;35706;52.100;5.056;2023-04-29T05:09:21;101701.47;;;10.56;94.36
49813;BME280;35706;52.100;5.056;2023-04-29T05:10:21;101704.94;;;10.57;94.58
49813;BME280;35706;52.100;5.056;2023-04-29T05:11:25;101706.34;;;10.50;95.11
49813;BME280;35706;52.100;5.056;2023-04-29T05:12:27;101710.09;;;10.58;94.86
49813;BME280;35706;52.100;5.056;2023-04-29T05:13:29;101708.19;;;10.61;95.24
49813;BME280;35706;52.100;5.056;2023-04-29T05:14:29;101705.91;;;10.67;94.63
49813;BME280;35706;52.100;5.056;2023-04-29T05:15:30;101711.53;;;10.63;94.64
49813;BME280;35706;52.100;5.056;2023-04-29T05:16:30;101713.53;;;10.59;94.70
49813;BME280;35706;52.100;5.056;2023-04-29T05:17:30;101713.66;;;10.57;94.89
49813;BME280;35706;52.100;5.056;2023-04-29T05:18:31;101709.94;;;10.60;94.75
49813;BME280;35706;52.100;5.056;2023-04-29T05:19:31;101712.72;;;10.58;94.81
49813;BME280;35706;52.100;5.056;2023-04-29T05:20:31;101710.41;;;10.54;95.55
49813;BME280;35706;52.100;5.056;2023-04-29T05:21:31;101715.81;;;10.64;94.78
49813;BME280;35706;52.100;5.056;2023-04-29T05:22:32;101711.03;;;10.57;95.13
49813;BME280;35706;52.100;5.056;2023-04-29T05:23:32;101713.66;;;10.57;94.99
49813;BME280;35706;52.100;5.056;2023-04-29T05:24:32;101716.78;;;10.63;94.82
49813;BME280;35706;52.100;5.056;2023-04-29T05:25:33;101716.78;;;10.63;94.83
49813;BME280;35706;52.100;5.056;2023-04-29T05:26:33;101702.56;;;10.65;94.35
49813;BME280;35706;52.100;5.056;2023-04-29T05:27:34;101712.50;;;10.73;93.85
49813;BME280;35706;52.100;5.056;2023-04-29T05:28:34;101715.34;;;10.70;93.78
49813;BME280;35706;52.100;5.056;2023-04-29T05:29:34;101711.19;;;10.78;93.48
49813;BME280;35706;52.100;5.056;2023-04-29T05:30:35;101709.41;;;10.79;93.42